createdAt,value
2019-01-08T00:01:38.299Z,87.58
2019-01-08T00:04:07.799Z,87.56
2019-01-08T00:06:37.315Z,87.61
2019-01-08T00:09:07.129Z,87.47
2019-01-08T00:11:36.663Z,87.60
2019-01-08T00:14:06.220Z,87.46
2019-01-08T00:16:35.761Z,87.31
2019-01-08T00:19:05.309Z,87.27
2019-01-08T00:21:34.856Z,87.25
2019-01-08T00:24:04.430Z,87.37
2019-01-08T00:26:33.956Z,87.60
2019-01-08T00:29:03.508Z,87.95
2019-01-08T00:31:33.065Z,85.76
2019-01-08T00:34:02.585Z,84.69
2019-01-08T00:36:32.131Z,82.91
2019-01-08T00:39:01.659Z,84.02
2019-01-08T00:41:31.246Z,84.25
2019-01-08T00:44:00.776Z,84.49
2019-01-08T00:46:30.295Z,84.78
2019-01-08T00:48:59.829Z,84.95
2019-01-08T00:51:29.374Z,85.15
2019-01-08T00:53:58.928Z,84.92
2019-01-08T00:56:28.466Z,84.88
2019-01-08T00:58:58.011Z,85.00
2019-01-08T01:01:27.553Z,84.68
2019-01-08T01:03:57.090Z,84.35
2019-01-08T01:06:26.632Z,84.42
2019-01-08T01:08:56.163Z,84.44
2019-01-08T01:11:25.722Z,84.23
2019-01-08T01:13:55.249Z,84.02
2019-01-08T01:16:24.804Z,83.90
2019-01-08T01:18:54.364Z,83.12
2019-01-08T01:21:23.896Z,83.27
2019-01-08T01:23:53.418Z,83.04
2019-01-08T01:26:23.249Z,83.10
2019-01-08T01:29:00.040Z,83.21
2019-01-08T01:31:24.058Z,83.22
2019-01-08T01:33:53.970Z,83.07
2019-01-08T01:36:23.764Z,83.28
2019-01-08T01:38:53.309Z,83.28
2019-01-08T01:41:22.851Z,83.26
2019-01-08T01:43:52.658Z,83.20
2019-01-08T01:46:22.194Z,83.04
2019-01-08T01:48:51.747Z,82.96
2019-01-08T01:51:21.313Z,83.21
2019-01-08T01:53:50.848Z,83.25
2019-01-08T01:56:20.383Z,83.32
2019-01-08T01:58:49.921Z,83.31
2019-01-08T02:01:21.008Z,83.55
2019-01-08T02:03:50.554Z,83.87
2019-01-08T02:06:20.095Z,83.88
2019-01-08T02:08:49.642Z,83.92
2019-01-08T02:11:19.167Z,84.02
2019-01-08T02:13:48.704Z,84.17
2019-01-08T02:16:18.276Z,84.46
2019-01-08T02:18:47.808Z,84.72
2019-01-08T02:21:17.765Z,84.43
2019-01-08T02:23:47.379Z,84.21
2019-01-08T02:26:16.931Z,84.07
2019-01-08T02:28:46.477Z,83.95
2019-01-08T02:31:16.031Z,83.67
2019-01-08T02:33:45.619Z,83.42
2019-01-08T02:36:15.415Z,83.40
2019-01-08T02:38:44.951Z,83.02
2019-01-08T02:41:14.708Z,82.88
2019-01-08T02:43:44.244Z,82.65
2019-01-08T02:46:13.853Z,82.21
2019-01-08T02:48:43.500Z,81.82
2019-01-08T02:51:13.034Z,81.84
2019-01-08T02:53:42.572Z,81.34
2019-01-08T02:56:12.132Z,81.16
2019-01-08T02:58:41.665Z,81.25
2019-01-08T03:03:47.464Z,80.90
2019-01-08T03:06:16.999Z,81.03
2019-01-08T03:08:46.542Z,80.93
2019-01-08T03:11:16.130Z,80.57
2019-01-08T03:13:45.716Z,80.44
2019-01-08T03:16:15.263Z,80.54
2019-01-08T03:18:44.835Z,80.00
2019-01-08T03:21:14.383Z,80.33
2019-01-08T03:23:43.902Z,79.97
2019-01-08T03:26:13.447Z,79.80
2019-01-08T03:28:42.985Z,79.95
2019-01-08T03:31:12.543Z,79.95
2019-01-08T03:33:42.073Z,79.88
2019-01-08T03:36:11.618Z,79.72
2019-01-08T03:38:41.188Z,80.14
2019-01-08T03:41:10.722Z,79.73
2019-01-08T03:43:40.267Z,80.01
2019-01-08T03:46:09.832Z,79.94
2019-01-08T03:48:39.369Z,79.96
2019-01-08T03:51:08.893Z,79.97
2019-01-08T03:53:38.454Z,79.84
2019-01-08T03:56:07.995Z,79.70
2019-01-08T03:58:37.790Z,79.75
2019-01-08T04:01:07.350Z,79.78
2019-01-08T04:03:36.893Z,79.82
2019-01-08T04:06:06.413Z,79.63
2019-01-08T04:08:35.961Z,79.41
2019-01-08T04:11:05.494Z,79.14
2019-01-08T04:13:35.309Z,79.34
2019-01-08T04:16:04.880Z,79.46
2019-01-08T04:18:34.407Z,79.49
2019-01-08T04:21:03.947Z,79.47
2019-01-08T04:23:33.500Z,79.40
2019-01-08T04:26:03.029Z,79.04
2019-01-08T04:28:32.593Z,79.31
2019-01-08T04:31:02.134Z,79.20
2019-01-08T04:33:31.674Z,79.22
2019-01-08T04:36:01.225Z,79.11
2019-01-08T04:38:30.793Z,78.98
2019-01-08T04:41:00.335Z,78.89
2019-01-08T04:43:29.859Z,78.77
2019-01-08T04:45:59.430Z,78.84
2019-01-08T04:48:29.013Z,78.38
2019-01-08T04:50:58.558Z,78.34
2019-01-08T04:53:28.109Z,78.41
2019-01-08T04:55:57.638Z,78.43
2019-01-08T04:58:27.185Z,78.31
2019-01-08T05:00:56.764Z,78.20
2019-01-08T05:03:26.347Z,77.93
2019-01-08T05:05:55.850Z,78.30
2019-01-08T05:08:25.396Z,78.09
2019-01-08T05:10:54.952Z,77.90
2019-01-08T05:13:24.482Z,78.04
2019-01-08T05:15:54.008Z,78.15
2019-01-08T05:18:23.573Z,78.38
2019-01-08T05:20:53.131Z,78.16
2019-01-08T05:23:22.651Z,78.40
2019-01-08T05:25:52.207Z,79.09
2019-01-08T05:28:21.749Z,80.39
2019-01-08T05:30:51.303Z,81.59
2019-01-08T05:33:22.370Z,82.52
2019-01-08T05:35:51.912Z,82.67
2019-01-08T05:38:21.471Z,82.84
2019-01-08T05:40:51.004Z,84.00
2019-01-08T05:43:20.543Z,84.80
2019-01-08T05:45:50.258Z,84.30
2019-01-08T05:48:19.810Z,85.42
2019-01-08T05:50:50.968Z,85.39
2019-01-08T05:53:22.112Z,85.53
2019-01-08T05:55:51.657Z,86.04
2019-01-08T05:58:21.182Z,86.82
2019-01-08T06:00:50.736Z,87.07
2019-01-08T06:03:20.279Z,87.17
2019-01-08T06:05:49.875Z,87.24
2019-01-08T06:08:19.413Z,87.09
2019-01-08T06:10:48.977Z,86.86
2019-01-08T06:13:18.521Z,86.70
2019-01-08T06:15:48.073Z,86.40
2019-01-08T06:18:17.850Z,86.31
2019-01-08T06:20:47.477Z,85.92
2019-01-08T06:23:17.025Z,85.76
2019-01-08T06:25:46.573Z,85.45
2019-01-08T06:28:16.116Z,85.32
2019-01-08T06:30:45.902Z,85.30
2019-01-08T06:33:15.450Z,85.20
2019-01-08T06:35:45.005Z,85.10
2019-01-08T06:38:15.416Z,85.08
2019-01-08T06:40:45.073Z,85.23
2019-01-08T06:43:14.669Z,85.05
2019-01-08T06:45:44.162Z,84.50
2019-01-08T06:48:13.707Z,84.23
2019-01-08T06:50:43.251Z,83.96
2019-01-08T06:53:12.816Z,83.31
2019-01-08T06:55:42.367Z,83.08
2019-01-08T06:58:11.901Z,81.63
2019-01-08T07:00:41.440Z,81.35
2019-01-08T07:03:10.972Z,81.44
2019-01-08T07:05:40.499Z,79.96
2019-01-08T07:08:10.272Z,80.10
2019-01-08T07:10:39.863Z,79.94
2019-01-08T07:13:09.402Z,79.57
2019-01-08T07:15:38.927Z,79.61
2019-01-08T07:18:08.467Z,79.39
2019-01-08T07:20:38.005Z,79.45
2019-01-08T07:23:07.531Z,79.50
2019-01-08T07:25:42.100Z,79.70
2019-01-08T07:28:08.335Z,79.15
2019-01-08T07:30:41.614Z,78.91
2019-01-08T07:33:09.207Z,78.55
2019-01-08T07:35:38.782Z,78.31
2019-01-08T07:38:08.314Z,78.04
2019-01-08T07:40:37.848Z,78.19
2019-01-08T07:43:07.407Z,78.25
2019-01-08T07:45:36.941Z,77.98
2019-01-08T07:48:06.828Z,77.90
2019-01-08T07:50:36.413Z,77.87
2019-01-08T07:53:05.941Z,78.11
2019-01-08T07:55:35.501Z,77.97
2019-01-08T07:58:05.017Z,77.70
2019-01-08T08:00:34.562Z,77.51
2019-01-08T08:03:04.124Z,76.51
2019-01-08T08:05:33.669Z,76.38
2019-01-08T08:08:03.211Z,76.32
2019-01-08T08:10:32.758Z,75.97
2019-01-08T08:13:02.280Z,75.93
2019-01-08T08:15:31.819Z,75.78
2019-01-08T08:18:01.360Z,75.84
2019-01-08T08:20:30.886Z,75.80
2019-01-08T08:23:00.416Z,75.76
2019-01-08T08:25:49.283Z,75.87
2019-01-08T08:28:18.847Z,75.53
2019-01-08T08:30:48.705Z,75.68
2019-01-08T08:33:18.219Z,76.04
2019-01-08T08:35:47.784Z,75.97
2019-01-08T08:38:17.628Z,75.80
2019-01-08T08:40:47.432Z,76.18
2019-01-08T08:43:16.971Z,76.72
2019-01-08T08:45:46.502Z,76.96
2019-01-08T08:48:16.050Z,77.07
2019-01-08T08:50:45.598Z,76.96
2019-01-08T08:53:15.138Z,77.34
2019-01-08T08:55:44.683Z,77.36
2019-01-08T08:58:14.233Z,77.33
2019-01-08T09:00:43.768Z,77.49
2019-01-08T09:03:13.321Z,77.56
2019-01-08T09:05:42.980Z,77.77
2019-01-08T09:08:12.532Z,78.11
2019-01-08T09:10:42.061Z,78.29
2019-01-08T09:13:11.596Z,78.99
2019-01-08T09:15:41.147Z,79.35
2019-01-08T09:18:10.948Z,79.48
2019-01-08T09:20:40.492Z,80.06
2019-01-08T09:23:10.270Z,80.63
2019-01-08T09:25:39.828Z,80.90
2019-01-08T09:28:09.504Z,81.23
2019-01-08T09:30:38.980Z,81.29
2019-01-08T09:33:08.522Z,81.80
2019-01-08T09:35:38.069Z,82.29
2019-01-08T09:38:07.600Z,82.22
2019-01-08T09:40:37.153Z,82.36
2019-01-08T09:43:06.717Z,83.40
2019-01-08T09:45:36.263Z,83.46
2019-01-08T09:48:05.848Z,83.70
2019-01-08T09:50:35.363Z,83.96
2019-01-08T09:53:04.895Z,84.08
2019-01-08T09:55:34.462Z,84.16
2019-01-08T09:58:04.003Z,83.85
2019-01-08T10:00:33.556Z,84.13
2019-01-08T10:03:03.095Z,83.78
2019-01-08T10:05:32.822Z,83.77
2019-01-08T10:08:02.316Z,83.74
2019-01-08T10:10:31.881Z,83.97
2019-01-08T10:13:01.409Z,84.27
2019-01-08T10:15:30.944Z,84.59
2019-01-08T10:18:00.487Z,84.84
2019-01-08T10:20:30.040Z,84.66
2019-01-08T10:22:59.580Z,84.72
2019-01-08T10:25:29.129Z,84.57
2019-01-08T10:27:58.664Z,84.09
2019-01-08T10:30:28.235Z,84.17
2019-01-08T10:32:57.764Z,84.07
2019-01-08T10:35:27.315Z,83.79
2019-01-08T10:37:56.879Z,83.55
2019-01-08T10:40:26.417Z,83.37
2019-01-08T10:42:55.958Z,83.33
2019-01-08T10:45:28.570Z,82.75
2019-01-08T10:47:58.101Z,81.98
2019-01-08T10:50:27.647Z,81.86
2019-01-08T10:52:57.191Z,81.88
2019-01-08T10:55:26.753Z,81.18
2019-01-08T10:57:56.282Z,80.97
2019-01-08T11:00:25.825Z,80.57
2019-01-08T11:02:55.456Z,80.39
2019-01-08T11:05:26.517Z,80.49
2019-01-08T11:07:56.046Z,80.43
2019-01-08T11:10:25.604Z,80.47
2019-01-08T11:12:55.146Z,80.27
2019-01-08T11:15:24.714Z,80.29
2019-01-08T11:17:54.325Z,80.37
2019-01-08T11:20:27.943Z,80.13
2019-01-08T11:22:57.491Z,80.06
2019-01-08T11:25:27.071Z,79.86
2019-01-08T11:27:56.647Z,80.01
2019-01-08T11:30:26.477Z,80.06
2019-01-08T11:32:56.098Z,80.54
2019-01-08T11:35:25.666Z,81.12
2019-01-08T11:37:55.212Z,81.11
2019-01-08T11:40:24.782Z,81.10
2019-01-08T11:42:54.303Z,80.87
2019-01-08T11:45:26.906Z,80.81
2019-01-08T11:48:03.768Z,79.61
2019-01-08T11:50:27.734Z,80.35
2019-01-08T11:52:57.297Z,80.07
2019-01-08T11:55:26.836Z,80.13
2019-01-08T11:57:56.377Z,79.77
2019-01-08T12:00:25.956Z,79.74
2019-01-08T12:02:55.516Z,78.97
2019-01-08T12:05:26.162Z,78.77
2019-01-08T12:07:55.696Z,78.29
2019-01-08T12:10:25.277Z,78.52
2019-01-08T12:12:54.782Z,78.77
2019-01-08T12:15:24.345Z,78.33
2019-01-08T12:17:53.880Z,78.01
2019-01-08T12:20:23.430Z,77.33
2019-01-08T12:22:52.965Z,77.75
2019-01-08T12:25:22.659Z,78.88
2019-01-08T12:27:52.197Z,79.46
2019-01-08T12:30:21.720Z,79.20
2019-01-08T12:32:51.261Z,80.08
2019-01-08T12:35:21.033Z,80.08
2019-01-08T12:37:50.571Z,80.56
2019-01-08T12:40:20.101Z,80.97
2019-01-08T12:42:49.660Z,81.38
2019-01-08T12:45:19.187Z,81.37
2019-01-08T12:47:48.734Z,81.66
2019-01-08T12:50:18.282Z,81.82
2019-01-08T12:52:47.847Z,81.84
2019-01-08T12:55:17.412Z,81.82
2019-01-08T12:57:46.940Z,81.68
2019-01-08T13:00:16.474Z,81.57
2019-01-08T13:02:46.281Z,82.02
2019-01-08T13:05:15.894Z,82.29
2019-01-08T13:07:45.436Z,82.50
2019-01-08T13:10:14.991Z,82.36
2019-01-08T13:12:47.200Z,82.25
2019-01-08T13:15:16.745Z,81.44
2019-01-08T13:17:46.275Z,81.17
2019-01-08T13:20:15.846Z,80.02
2019-01-08T13:22:45.366Z,80.11
2019-01-08T13:25:14.930Z,80.25
2019-01-08T13:27:44.455Z,79.07
2019-01-08T13:30:13.977Z,78.37
2019-01-08T13:32:45.151Z,77.48
2019-01-08T13:35:15.765Z,75.77
2019-01-08T13:37:45.423Z,76.53
2019-01-08T13:40:14.945Z,77.74
2019-01-08T13:45:36.118Z,79.13
2019-01-08T13:48:25.003Z,80.08
2019-01-08T13:51:12.013Z,80.44
2019-01-08T13:57:46.428Z,80.34
2019-01-08T14:00:35.586Z,80.45
2019-01-08T14:06:14.047Z,79.10
2019-01-08T14:09:21.255Z,79.23
2019-01-08T14:12:10.217Z,78.90
2019-01-08T14:18:03.231Z,78.92
2019-01-08T14:20:44.666Z,78.97
2019-01-08T14:41:55.822Z,77.91
2019-01-08T14:44:44.760Z,78.13
2019-01-08T14:58:53.319Z,78.39
2019-01-08T15:01:35.042Z,79.60
2019-01-08T15:04:22.945Z,79.80
2019-01-08T15:11:10.361Z,79.36
2019-01-08T15:22:18.088Z,78.26
2019-01-08T15:26:00.586Z,77.95
2019-01-08T16:07:40.066Z,76.00
2019-01-08T16:25:37.717Z,75.62
2019-01-08T16:28:46.839Z,75.53
2019-01-08T16:38:15.316Z,75.31
2019-01-08T16:41:58.414Z,75.48
2019-01-08T16:48:35.665Z,75.68
2019-01-08T16:55:23.445Z,76.55
2019-01-08T17:01:35.386Z,75.51
2019-01-08T17:04:43.272Z,75.54
2019-01-08T17:10:55.934Z,75.61
2019-01-08T17:13:44.367Z,75.72
2019-01-08T17:16:32.984Z,75.71
2019-01-08T17:19:15.282Z,75.64
2019-01-08T17:29:56.097Z,75.56
2019-01-08T17:40:20.157Z,75.99
2019-01-08T17:47:44.294Z,76.34
2019-01-08T17:54:20.068Z,77.68
2019-01-08T18:04:09.407Z,78.94
2019-01-08T18:12:48.426Z,80.61
2019-01-08T18:15:37.317Z,81.77
2019-01-08T18:18:25.928Z,82.35
2019-01-08T18:21:32.547Z,82.79
2019-01-08T18:28:20.428Z,79.69
2019-01-08T18:34:12.058Z,81.15
2019-01-08T18:37:00.957Z,81.27
2019-01-08T18:42:48.193Z,80.91
2019-01-08T18:45:55.201Z,81.33
2019-01-08T18:49:02.249Z,81.63
2019-01-08T18:59:30.130Z,81.29
2019-01-08T19:24:30.458Z,78.55
2019-01-08T19:27:55.521Z,78.12
2019-01-08T19:31:21.562Z,78.41
2019-01-08T19:41:46.129Z,78.19
2019-01-08T20:02:58.349Z,78.64
2019-01-08T20:14:37.048Z,78.15
2019-01-08T20:18:24.125Z,78.29
2019-01-08T20:27:56.037Z,77.68
2019-01-08T20:34:48.562Z,77.78
2019-01-08T20:37:55.194Z,77.45
2019-01-08T20:47:56.452Z,76.69
2019-01-08T20:51:04.272Z,76.96
2019-01-08T21:04:13.853Z,76.61
2019-01-08T21:07:01.722Z,76.60
2019-01-08T21:20:18.455Z,77.52
2019-01-08T21:27:48.806Z,78.97
2019-01-08T21:34:09.797Z,80.60
2019-01-08T21:41:03.940Z,81.15
2019-01-08T21:44:10.648Z,80.23
2019-01-08T21:50:31.478Z,79.93
2019-01-08T21:53:20.360Z,79.48
2019-01-08T21:55:49.911Z,79.25
2019-01-08T21:58:19.440Z,79.17
2019-01-08T22:00:49.011Z,78.83
2019-01-08T22:03:18.537Z,78.80
2019-01-08T22:05:48.085Z,78.57
2019-01-08T22:08:17.644Z,78.12
2019-01-08T22:10:48.760Z,78.02
2019-01-08T22:13:18.885Z,78.05
2019-01-08T22:15:48.542Z,77.97
2019-01-08T22:18:20.240Z,77.15
2019-01-08T22:20:49.790Z,76.57
2019-01-08T22:23:19.341Z,77.13
2019-01-08T22:25:48.877Z,77.06
2019-01-08T22:28:18.773Z,77.03
2019-01-08T22:30:48.323Z,76.03
2019-01-08T22:33:17.866Z,75.87
2019-01-08T22:35:47.567Z,76.15
2019-01-08T22:38:17.130Z,76.63
2019-01-08T22:40:46.917Z,76.11
2019-01-08T22:43:17.764Z,76.66
2019-01-08T22:45:47.385Z,76.37
2019-01-08T22:48:16.936Z,76.21
2019-01-08T22:50:46.813Z,76.51
2019-01-08T22:53:17.892Z,76.99
2019-01-08T22:55:47.444Z,77.75
2019-01-08T22:58:20.282Z,78.36
2019-01-08T23:01:01.393Z,78.67
2019-01-08T23:03:30.949Z,78.89
2019-01-08T23:06:00.495Z,79.19
2019-01-08T23:08:30.037Z,79.36
2019-01-08T23:10:59.599Z,79.71
2019-01-08T23:13:29.448Z,79.65
2019-01-08T23:15:58.954Z,79.24
2019-01-08T23:18:28.492Z,79.09
2019-01-08T23:20:58.030Z,79.18
2019-01-08T23:23:27.564Z,78.30
2019-01-08T23:25:57.105Z,78.54
2019-01-08T23:28:26.644Z,78.50
2019-01-08T23:30:56.177Z,78.15
2019-01-08T23:33:25.734Z,78.08
2019-01-08T23:35:55.264Z,78.07
2019-01-08T23:38:24.786Z,78.03
2019-01-08T23:40:54.387Z,78.17
2019-01-08T23:43:24.002Z,77.92
2019-01-08T23:45:53.549Z,77.78
2019-01-08T23:48:23.128Z,77.90
2019-01-08T23:50:52.901Z,77.97
2019-01-08T23:53:33.070Z,78.07
2019-01-08T23:56:04.399Z,77.96
2019-01-08T23:58:33.933Z,77.70
